Terminal Aerodrome Forecast
Issued by NWS Buffalo, NY

Home | Current Version | Previous Version | Text Only | Print | Product List | Glossary On
Versions: 1 2 3 4 5 6 7 8 9 10 11 12 13 14 15 16 17 18 19 20 21 22 23 24 25 26 27
216
FTUS41 KBUF 192333 AAB
TAFBUF
TAF AMD
KBUF 192333Z 2000/2018 21006KT 2SM -DZ BR OVC002
     FM200400 VRB03KT 3SM BR OVC003
     FM201000 09004KT P6SM BKN015
     FM201200 10004KT P6SM BKN007
     FM201300 10004KT P6SM BKN015
     FM201700 13004KT P6SM VCSH OVC007=

USA.gov is the U.S. government's official web portal to all federal, state and local government web resources and services.